Weather at Zoufftgen Airfield

Public forecast

Using degrees Celsius for public forecast. Weather courtesy of forecast.io.

Closest aviation weather report (METAR) to Zoufftgen Airfield

Closest report is Luxembourg-Findel International Airport, 10.9 nm (20.2 km) NNE.

2024/06/24 03:50 (retrieved 28 minutes ago)

ELLX 240350Z 04008KT CAVOK 14/12 Q1020 NOSIG

Closest aviation forecast (TAF) to Zoufftgen Airfield

Forecast is more than 6 hours old.

Closest forecast is Chi√®vres Air Base, 111.4 nm (206.3 km) NW.

2024/06/23 19:18 Correction (retrieved 9 hours ago)

TAF TAF COR EBCV 231541Z 2319/2407 33003KT 9999 FEW030 BECMG 2322/2324 04005KT BY EBWM